sensor_id;sensor_type;location;lat;lon;timestamp;pressure;altitude;pressure_sealevel;temperature;humidity
55301;BME280;58302;51.446;-2.000;2022-08-03T00:00:40;100491.06;;;18.47;89.84
55301;BME280;58302;51.446;-2.000;2022-08-03T00:03:06;100493.16;;;18.50;89.80
55301;BME280;58302;51.446;-2.000;2022-08-03T00:05:32;100490.91;;;18.52;89.63
55301;BME280;58302;51.446;-2.000;2022-08-03T00:07:59;100493.00;;;18.55;89.51
55301;BME280;58302;51.446;-2.000;2022-08-03T00:10:25;100499.84;;;18.58;89.29
55301;BME280;58302;51.446;-2.000;2022-08-03T00:12:52;100488.81;;;18.58;89.45
55301;BME280;58302;51.446;-2.000;2022-08-03T00:15:18;100492.88;;;18.60;89.12
55301;BME280;58302;51.446;-2.000;2022-08-03T00:17:44;100486.06;;;18.58;89.05
55301;BME280;58302;51.446;-2.000;2022-08-03T00:20:11;100489.31;;;18.60;89.28
55301;BME280;58302;51.446;-2.000;2022-08-03T00:22:37;100479.75;;;18.57;89.36
55301;BME280;58302;51.446;-2.000;2022-08-03T00:25:03;100478.78;;;18.62;89.06
55301;BME280;58302;51.446;-2.000;2022-08-03T00:27:29;100477.97;;;18.61;89.08
55301;BME280;58302;51.446;-2.000;2022-08-03T00:29:55;100482.19;;;18.59;89.16
55301;BME280;58302;51.446;-2.000;2022-08-03T00:32:21;100479.25;;;18.55;89.19
55301;BME280;58302;51.446;-2.000;2022-08-03T00:40:30;100469.03;;;18.47;89.86
55301;BME280;58302;51.446;-2.000;2022-08-03T00:42:59;100464.16;;;18.44;89.93
55301;BME280;58302;51.446;-2.000;2022-08-03T00:45:44;100466.91;;;18.44;89.90
55301;BME280;58302;51.446;-2.000;2022-08-03T00:48:11;100463.34;;;18.43;90.00
55301;BME280;58302;51.446;-2.000;2022-08-03T00:50:39;100466.75;;;18.40;90.16
55301;BME280;58302;51.446;-2.000;2022-08-03T00:53:06;100455.22;;;18.38;90.16
55301;BME280;58302;51.446;-2.000;2022-08-03T00:55:34;100449.38;;;18.31;90.65
55301;BME280;58302;51.446;-2.000;2022-08-03T00:58:02;100444.16;;;18.21;90.93
55301;BME280;58302;51.446;-2.000;2022-08-03T01:00:32;100445.56;;;18.10;91.60
55301;BME280;58302;51.446;-2.000;2022-08-03T01:02:58;100453.75;;;18.01;91.98
55301;BME280;58302;51.446;-2.000;2022-08-03T01:05:24;100449.00;;;17.93;92.44
55301;BME280;58302;51.446;-2.000;2022-08-03T01:13:21;100455.91;;;17.82;93.84
55301;BME280;58302;51.446;-2.000;2022-08-03T01:18:56;100442.19;;;17.90;93.59
55301;BME280;58302;51.446;-2.000;2022-08-03T01:21:32;100436.06;;;17.94;93.41
55301;BME280;58302;51.446;-2.000;2022-08-03T01:24:16;100435.75;;;17.95;93.15
55301;BME280;58302;51.446;-2.000;2022-08-03T01:27:14;100445.81;;;18.00;92.93
55301;BME280;58302;51.446;-2.000;2022-08-03T01:30:07;100442.94;;;18.05;92.87
55301;BME280;58302;51.446;-2.000;2022-08-03T01:35:38;100435.69;;;18.17;91.62
55301;BME280;58302;51.446;-2.000;2022-08-03T01:38:23;100428.09;;;18.14;91.86
55301;BME280;58302;51.446;-2.000;2022-08-03T01:40:52;100421.94;;;18.09;92.11
55301;BME280;58302;51.446;-2.000;2022-08-03T01:43:22;100424.69;;;18.09;92.15
55301;BME280;58302;51.446;-2.000;2022-08-03T01:45:50;100432.13;;;18.08;92.27
55301;BME280;58302;51.446;-2.000;2022-08-03T01:48:18;100428.25;;;18.09;92.39
55301;BME280;58302;51.446;-2.000;2022-08-03T01:50:45;100420.31;;;18.08;92.05
55301;BME280;58302;51.446;-2.000;2022-08-03T01:53:16;100420.47;;;18.11;92.19
55301;BME280;58302;51.446;-2.000;2022-08-03T01:55:46;100418.03;;;18.10;92.31
55301;BME280;58302;51.446;-2.000;2022-08-03T01:58:15;100428.72;;;18.11;92.30
55301;BME280;58302;51.446;-2.000;2022-08-03T02:00:43;100433.91;;;18.13;92.02
55301;BME280;58302;51.446;-2.000;2022-08-03T02:03:12;100428.09;;;18.14;92.10
55301;BME280;58302;51.446;-2.000;2022-08-03T02:05:39;100429.72;;;18.15;92.09
55301;BME280;58302;51.446;-2.000;2022-08-03T02:08:07;100430.19;;;18.17;91.67
55301;BME280;58302;51.446;-2.000;2022-08-03T02:10:36;100429.72;;;18.15;91.78
55301;BME280;58302;51.446;-2.000;2022-08-03T02:13:04;100430.03;;;18.14;91.96
55301;BME280;58302;51.446;-2.000;2022-08-03T02:15:32;100425.34;;;18.14;92.05
55301;BME280;58302;51.446;-2.000;2022-08-03T02:18:00;100425.03;;;18.16;91.98
55301;BME280;58302;51.446;-2.000;2022-08-03T02:20:28;100426.97;;;18.15;92.13
55301;BME280;58302;51.446;-2.000;2022-08-03T02:22:57;100430.53;;;18.16;92.23
55301;BME280;58302;51.446;-2.000;2022-08-03T02:25:24;100426.63;;;18.17;92.32
55301;BME280;58302;51.446;-2.000;2022-08-03T02:27:52;100420.00;;;18.18;91.99
55301;BME280;58302;51.446;-2.000;2022-08-03T02:30:20;100424.88;;;18.21;92.33
55301;BME280;58302;51.446;-2.000;2022-08-03T02:32:54;100424.09;;;18.21;92.21
55301;BME280;58302;51.446;-2.000;2022-08-03T02:35:23;100412.28;;;18.20;92.21
55301;BME280;58302;51.446;-2.000;2022-08-03T02:37:52;100420.19;;;18.22;92.33
55301;BME280;58302;51.446;-2.000;2022-08-03T02:40:22;100416.81;;;18.25;92.46
55301;BME280;58302;51.446;-2.000;2022-08-03T02:42:52;100416.50;;;18.26;92.33
55301;BME280;58302;51.446;-2.000;2022-08-03T02:45:21;100411.63;;;18.23;92.24
55301;BME280;58302;51.446;-2.000;2022-08-03T02:47:52;100419.06;;;18.23;92.40
55301;BME280;58302;51.446;-2.000;2022-08-03T02:50:21;100422.13;;;18.21;92.36
55301;BME280;58302;51.446;-2.000;2022-08-03T02:52:50;100421.66;;;18.19;92.87
55301;BME280;58302;51.446;-2.000;2022-08-03T02:55:17;100424.56;;;18.23;92.89
55301;BME280;58302;51.446;-2.000;2022-08-03T02:57:46;100419.38;;;18.21;92.54
55301;BME280;58302;51.446;-2.000;2022-08-03T03:00:13;100421.81;;;18.23;92.46
55301;BME280;58302;51.446;-2.000;2022-08-03T03:02:40;100422.75;;;18.18;92.77
55301;BME280;58302;51.446;-2.000;2022-08-03T03:05:08;100422.59;;;18.14;93.06
55301;BME280;58302;51.446;-2.000;2022-08-03T03:07:36;100416.59;;;18.12;93.52
55301;BME280;58302;51.446;-2.000;2022-08-03T03:10:04;100414.16;;;18.11;93.59
55301;BME280;58302;51.446;-2.000;2022-08-03T03:12:30;100415.91;;;18.07;93.95
55301;BME280;58302;51.446;-2.000;2022-08-03T03:14:58;100417.03;;;17.97;94.06
55301;BME280;58302;51.446;-2.000;2022-08-03T03:17:24;100416.97;;;17.88;94.58
55301;BME280;58302;51.446;-2.000;2022-08-03T03:19:52;100418.84;;;17.79;95.49
55301;BME280;58302;51.446;-2.000;2022-08-03T03:22:18;100422.94;;;17.68;95.88
55301;BME280;58302;51.446;-2.000;2022-08-03T03:24:46;100414.47;;;17.56;96.56
55301;BME280;58302;51.446;-2.000;2022-08-03T03:27:14;100417.31;;;17.51;97.69
55301;BME280;58302;51.446;-2.000;2022-08-03T03:29:40;100418.78;;;17.48;97.82
55301;BME280;58302;51.446;-2.000;2022-08-03T03:32:06;100411.47;;;17.44;98.78
55301;BME280;58302;51.446;-2.000;2022-08-03T03:34:33;100414.53;;;17.42;99.24
55301;BME280;58302;51.446;-2.000;2022-08-03T03:37:00;100413.91;;;17.45;99.42
55301;BME280;58302;51.446;-2.000;2022-08-03T03:39:26;100415.38;;;17.51;99.27
55301;BME280;58302;51.446;-2.000;2022-08-03T03:41:52;100414.66;;;17.59;98.98
55301;BME280;58302;51.446;-2.000;2022-08-03T03:44:19;100411.84;;;17.73;98.62
55301;BME280;58302;51.446;-2.000;2022-08-03T03:46:45;100407.41;;;17.86;97.99
55301;BME280;58302;51.446;-2.000;2022-08-03T03:49:11;100411.66;;;17.92;97.58
55301;BME280;58302;51.446;-2.000;2022-08-03T03:51:37;100406.50;;;17.99;97.43
55301;BME280;58302;51.446;-2.000;2022-08-03T03:54:03;100411.53;;;18.06;96.97
55301;BME280;58302;51.446;-2.000;2022-08-03T03:56:31;100409.44;;;18.03;97.17
55301;BME280;58302;51.446;-2.000;2022-08-03T03:58:58;100403.44;;;18.01;97.07
55301;BME280;58302;51.446;-2.000;2022-08-03T04:01:24;100410.38;;;17.98;97.82
55301;BME280;58302;51.446;-2.000;2022-08-03T04:03:50;100414.06;;;17.94;98.24
55301;BME280;58302;51.446;-2.000;2022-08-03T04:06:17;100408.91;;;17.92;98.55
55301;BME280;58302;51.446;-2.000;2022-08-03T04:09:02;100414.28;;;17.97;98.49
55301;BME280;58302;51.446;-2.000;2022-08-03T04:11:50;100417.63;;;17.94;98.66
55301;BME280;58302;51.446;-2.000;2022-08-03T04:14:23;100412.78;;;17.91;98.59
55301;BME280;58302;51.446;-2.000;2022-08-03T04:17:10;100412.28;;;17.89;99.08
55301;BME280;58302;51.446;-2.000;2022-08-03T04:19:42;100407.91;;;17.88;99.30
55301;BME280;58302;51.446;-2.000;2022-08-03T04:22:11;100406.09;;;17.83;99.81
55301;BME280;58302;51.446;-2.000;2022-08-03T04:25:13;100414.34;;;17.83;99.95
55301;BME280;58302;51.446;-2.000;2022-08-03T04:27:43;100414.00;;;17.85;100.00
55301;BME280;58302;51.446;-2.000;2022-08-03T04:30:11;100418.09;;;17.87;100.00
55301;BME280;58302;51.446;-2.000;2022-08-03T04:32:38;100420.19;;;17.90;99.87
55301;BME280;58302;51.446;-2.000;2022-08-03T04:35:05;100416.03;;;17.93;99.85
55301;BME280;58302;51.446;-2.000;2022-08-03T04:37:39;100416.50;;;17.95;100.00
55301;BME280;58302;51.446;-2.000;2022-08-03T04:40:10;100411.38;;;18.02;99.62
55301;BME280;58302;51.446;-2.000;2022-08-03T04:42:38;100419.19;;;18.09;99.10
55301;BME280;58302;51.446;-2.000;2022-08-03T04:45:05;100417.41;;;18.13;99.01
55301;BME280;58302;51.446;-2.000;2022-08-03T04:47:33;100420.84;;;18.19;98.72
55301;BME280;58302;51.446;-2.000;2022-08-03T04:50:00;100418.09;;;18.19;98.71
55301;BME280;58302;51.446;-2.000;2022-08-03T04:52:27;100414.69;;;18.22;98.55
55301;BME280;58302;51.446;-2.000;2022-08-03T04:54:54;100402.88;;;18.21;98.46
55301;BME280;58302;51.446;-2.000;2022-08-03T04:57:21;100404.53;;;18.31;97.98
55301;BME280;58302;51.446;-2.000;2022-08-03T04:59:47;100408.09;;;18.31;97.93
55301;BME280;58302;51.446;-2.000;2022-08-03T05:02:17;100408.78;;;18.37;97.41
55301;BME280;58302;51.446;-2.000;2022-08-03T05:04:43;100404.75;;;18.43;97.18
55301;BME280;58302;51.446;-2.000;2022-08-03T05:07:12;100407.97;;;18.45;97.13
55301;BME280;58302;51.446;-2.000;2022-08-03T05:09:38;100408.97;;;18.49;96.76
55301;BME280;58302;51.446;-2.000;2022-08-03T05:12:05;100415.78;;;18.52;96.69
55301;BME280;58302;51.446;-2.000;2022-08-03T05:14:35;100411.09;;;18.52;96.64
55301;BME280;58302;51.446;-2.000;2022-08-03T05:17:05;100408.34;;;18.52;96.45
55301;BME280;58302;51.446;-2.000;2022-08-03T05:19:31;100412.72;;;18.53;96.44
55301;BME280;58302;51.446;-2.000;2022-08-03T05:21:57;100405.72;;;18.47;96.64
55301;BME280;58302;51.446;-2.000;2022-08-03T05:24:23;100419.84;;;18.54;96.70
55301;BME280;58302;51.446;-2.000;2022-08-03T05:26:49;100414.81;;;18.56;96.44
55301;BME280;58302;51.446;-2.000;2022-08-03T05:29:15;100425.00;;;18.56;96.47
55301;BME280;58302;51.446;-2.000;2022-08-03T05:31:41;100419.69;;;18.59;96.23
55301;BME280;58302;51.446;-2.000;2022-08-03T05:34:07;100415.16;;;18.63;95.71
55301;BME280;58302;51.446;-2.000;2022-08-03T05:36:33;100421.47;;;18.64;95.66
55301;BME280;58302;51.446;-2.000;2022-08-03T05:38:59;100422.28;;;18.64;95.54
55301;BME280;58302;51.446;-2.000;2022-08-03T05:41:25;100423.31;;;18.68;95.52
55301;BME280;58302;51.446;-2.000;2022-08-03T05:43:52;100427.84;;;18.73;95.29
55301;BME280;58302;51.446;-2.000;2022-08-03T05:46:18;100433.03;;;18.75;95.22
55301;BME280;58302;51.446;-2.000;2022-08-03T05:48:45;100429.16;;;18.76;95.26
55301;BME280;58302;51.446;-2.000;2022-08-03T05:51:11;100439.50;;;18.79;95.31
55301;BME280;58302;51.446;-2.000;2022-08-03T05:53:39;100434.50;;;18.81;95.00
55301;BME280;58302;51.446;-2.000;2022-08-03T05:56:05;100438.25;;;18.85;94.92
55301;BME280;58302;51.446;-2.000;2022-08-03T05:58:31;100435.34;;;18.90;94.34
55301;BME280;58302;51.446;-2.000;2022-08-03T06:00:57;100436.81;;;18.96;94.15
55301;BME280;58302;51.446;-2.000;2022-08-03T06:03:23;100431.16;;;19.01;94.09
55301;BME280;58302;51.446;-2.000;2022-08-03T06:05:49;100438.75;;;19.04;93.63
55301;BME280;58302;51.446;-2.000;2022-08-03T06:08:15;100438.75;;;19.04;93.66
55301;BME280;58302;51.446;-2.000;2022-08-03T06:10:41;100432.75;;;19.11;93.52
55301;BME280;58302;51.446;-2.000;2022-08-03T06:13:10;100438.78;;;19.13;93.28
55301;BME280;58302;51.446;-2.000;2022-08-03T06:15:36;100433.25;;;19.13;93.49
55301;BME280;58302;51.446;-2.000;2022-08-03T06:18:02;100430.50;;;19.04;94.06
55301;BME280;58302;51.446;-2.000;2022-08-03T06:20:28;100438.09;;;18.99;94.53
55301;BME280;58302;51.446;-2.000;2022-08-03T06:22:54;100442.66;;;19.03;94.43
55301;BME280;58302;51.446;-2.000;2022-08-03T06:25:20;100451.09;;;19.07;94.63
55301;BME280;58302;51.446;-2.000;2022-08-03T06:27:47;100444.09;;;19.09;94.17
55301;BME280;58302;51.446;-2.000;2022-08-03T06:30:13;100449.63;;;19.18;93.78
55301;BME280;58302;51.446;-2.000;2022-08-03T06:32:39;100455.66;;;19.29;93.05
55301;BME280;58302;51.446;-2.000;2022-08-03T06:35:07;100455.47;;;19.42;92.84
55301;BME280;58302;51.446;-2.000;2022-08-03T06:37:46;100454.03;;;19.45;92.12
55301;BME280;58302;51.446;-2.000;2022-08-03T06:40:15;100454.81;;;19.37;92.11
55301;BME280;58302;51.446;-2.000;2022-08-03T06:42:41;100446.53;;;19.28;92.79
55301;BME280;58302;51.446;-2.000;2022-08-03T06:45:09;100451.91;;;19.25;92.98
55301;BME280;58302;51.446;-2.000;2022-08-03T06:47:39;100453.84;;;19.15;93.55
55301;BME280;58302;51.446;-2.000;2022-08-03T06:50:06;100450.94;;;19.20;93.59
55301;BME280;58302;51.446;-2.000;2022-08-03T06:52:34;100460.19;;;19.25;93.51
55301;BME280;58302;51.446;-2.000;2022-08-03T06:55:00;100444.59;;;19.37;92.73
55301;BME280;58302;51.446;-2.000;2022-08-03T06:57:26;100450.91;;;19.55;91.95
55301;BME280;58302;51.446;-2.000;2022-08-03T06:59:52;100452.53;;;19.91;89.67
55301;BME280;58302;51.446;-2.000;2022-08-03T07:02:18;100439.34;;;20.05;89.27
55301;BME280;58302;51.446;-2.000;2022-08-03T07:04:46;100446.56;;;20.27;88.14
55301;BME280;58302;51.446;-2.000;2022-08-03T07:07:12;100457.19;;;20.55;85.92
55301;BME280;58302;51.446;-2.000;2022-08-03T07:09:38;100450.50;;;20.64;86.01
55301;BME280;58302;51.446;-2.000;2022-08-03T07:12:04;100465.63;;;20.67;85.62
55301;BME280;58302;51.446;-2.000;2022-08-03T07:14:31;100461.38;;;20.69;84.90
55301;BME280;58302;51.446;-2.000;2022-08-03T07:16:57;100448.69;;;20.68;84.87
55301;BME280;58302;51.446;-2.000;2022-08-03T07:19:23;100442.84;;;20.70;85.10
55301;BME280;58302;51.446;-2.000;2022-08-03T07:21:49;100450.59;;;20.76;85.02
55301;BME280;58302;51.446;-2.000;2022-08-03T07:24:15;100450.97;;;20.96;83.95
55301;BME280;58302;51.446;-2.000;2022-08-03T07:26:41;100455.72;;;21.16;82.79
55301;BME280;58302;51.446;-2.000;2022-08-03T07:29:07;100463.53;;;21.14;82.38
55301;BME280;58302;51.446;-2.000;2022-08-03T07:31:33;100455.75;;;20.87;83.75
55301;BME280;58302;51.446;-2.000;2022-08-03T07:33:59;100463.97;;;20.95;83.29
55301;BME280;58302;51.446;-2.000;2022-08-03T07:36:25;100470.44;;;20.78;84.34
55301;BME280;58302;51.446;-2.000;2022-08-03T07:38:51;100470.16;;;20.92;84.41
55301;BME280;58302;51.446;-2.000;2022-08-03T07:41:17;100469.94;;;21.06;83.30
55301;BME280;58302;51.446;-2.000;2022-08-03T07:43:43;100465.06;;;21.03;83.90
55301;BME280;58302;51.446;-2.000;2022-08-03T07:46:09;100469.25;;;21.09;82.84
55301;BME280;58302;51.446;-2.000;2022-08-03T07:48:36;100470.19;;;21.13;83.05
55301;BME280;58302;51.446;-2.000;2022-08-03T07:51:02;100472.09;;;21.00;83.52
55301;BME280;58302;51.446;-2.000;2022-08-03T07:53:28;100468.16;;;21.01;83.65
55301;BME280;58302;51.446;-2.000;2022-08-03T07:55:54;100462.09;;;21.08;83.24
55301;BME280;58302;51.446;-2.000;2022-08-03T07:58:21;100462.28;;;21.03;83.18
55301;BME280;58302;51.446;-2.000;2022-08-03T08:00:48;100462.25;;;21.12;83.23
55301;BME280;58302;51.446;-2.000;2022-08-03T08:03:15;100458.59;;;21.20;82.54
55301;BME280;58302;51.446;-2.000;2022-08-03T08:05:41;100464.81;;;21.17;82.48
55301;BME280;58302;51.446;-2.000;2022-08-03T08:08:08;100468.69;;;21.45;81.33
55301;BME280;58302;51.446;-2.000;2022-08-03T08:10:34;100472.25;;;21.67;80.03
55301;BME280;58302;51.446;-2.000;2022-08-03T08:13:01;100475.47;;;21.69;79.27
55301;BME280;58302;51.446;-2.000;2022-08-03T08:15:27;100475.41;;;21.77;79.34
55301;BME280;58302;51.446;-2.000;2022-08-03T08:17:56;100473.84;;;21.89;79.13
55301;BME280;58302;51.446;-2.000;2022-08-03T08:20:29;100477.63;;;22.17;77.68
55301;BME280;58302;51.446;-2.000;2022-08-03T08:22:56;100471.53;;;22.24;76.28
55301;BME280;58302;51.446;-2.000;2022-08-03T08:25:22;100484.25;;;22.37;76.10
55301;BME280;58302;51.446;-2.000;2022-08-03T08:27:49;100485.06;;;22.74;73.92
55301;BME280;58302;51.446;-2.000;2022-08-03T08:30:17;100481.50;;;22.74;73.95
55301;BME280;58302;51.446;-2.000;2022-08-03T08:32:47;100485.63;;;22.80;73.42
55301;BME280;58302;51.446;-2.000;2022-08-03T08:35:13;100476.28;;;22.84;73.28
55301;BME280;58302;51.446;-2.000;2022-08-03T08:37:39;100475.97;;;22.98;72.61
55301;BME280;58302;51.446;-2.000;2022-08-03T08:40:07;100473.53;;;23.09;72.76
55301;BME280;58302;51.446;-2.000;2022-08-03T08:42:36;100472.50;;;22.65;74.17
55301;BME280;58302;51.446;-2.000;2022-08-03T08:45:04;100472.59;;;22.68;74.39
55301;BME280;58302;51.446;-2.000;2022-08-03T08:47:33;100479.78;;;22.81;73.01
55301;BME280;58302;51.446;-2.000;2022-08-03T08:50:01;100468.13;;;22.76;73.25
55301;BME280;58302;51.446;-2.000;2022-08-03T08:52:28;100474.94;;;23.03;71.78
55301;BME280;58302;51.446;-2.000;2022-08-03T08:55:01;100472.47;;;23.26;70.87
55301;BME280;58302;51.446;-2.000;2022-08-03T08:57:29;100479.25;;;23.28;71.10
55301;BME280;58302;51.446;-2.000;2022-08-03T08:59:56;100479.69;;;23.43;70.30
55301;BME280;58302;51.446;-2.000;2022-08-03T09:02:23;100479.97;;;23.93;68.02
55301;BME280;58302;51.446;-2.000;2022-08-03T09:04:50;100480.13;;;24.13;67.70
55301;BME280;58302;51.446;-2.000;2022-08-03T09:07:16;100476.41;;;24.53;66.47
55301;BME280;58302;51.446;-2.000;2022-08-03T09:09:42;100483.53;;;25.01;63.60
55301;BME280;58302;51.446;-2.000;2022-08-03T09:12:08;100475.13;;;24.34;65.59
55301;BME280;58302;51.446;-2.000;2022-08-03T09:14:34;100477.25;;;24.25;65.60
55301;BME280;58302;51.446;-2.000;2022-08-03T09:17:01;100471.22;;;24.35;65.98
55301;BME280;58302;51.446;-2.000;2022-08-03T09:19:29;100471.13;;;24.63;65.24
55301;BME280;58302;51.446;-2.000;2022-08-03T09:22:22;100475.00;;;25.10;63.40
55301;BME280;58302;51.446;-2.000;2022-08-03T09:24:59;100463.53;;;25.11;62.84
55301;BME280;58302;51.446;-2.000;2022-08-03T09:27:25;100469.69;;;25.05;62.64
55301;BME280;58302;51.446;-2.000;2022-08-03T09:29:52;100469.00;;;25.08;62.69
55301;BME280;58302;51.446;-2.000;2022-08-03T09:32:23;100469.25;;;25.03;62.38
55301;BME280;58302;51.446;-2.000;2022-08-03T09:34:51;100463.47;;;24.76;63.12
55301;BME280;58302;51.446;-2.000;2022-08-03T09:37:19;100476.03;;;24.70;64.35
55301;BME280;58302;51.446;-2.000;2022-08-03T09:39:46;100465.81;;;24.74;63.75
55301;BME280;58302;51.446;-2.000;2022-08-03T09:42:17;100471.22;;;24.51;64.17
55301;BME280;58302;51.446;-2.000;2022-08-03T09:44:48;100470.69;;;24.46;64.07
55301;BME280;58302;51.446;-2.000;2022-08-03T09:50:02;100472.38;;;23.90;66.32
55301;BME280;58302;51.446;-2.000;2022-08-03T09:52:35;100473.34;;;23.82;66.84
55301;BME280;58302;51.446;-2.000;2022-08-03T09:55:07;100474.69;;;23.88;67.32
55301;BME280;58302;51.446;-2.000;2022-08-03T09:57:33;100465.59;;;24.04;67.08
55301;BME280;58302;51.446;-2.000;2022-08-03T10:02:34;100472.94;;;24.40;65.06
55301;BME280;58302;51.446;-2.000;2022-08-03T10:05:01;100471.00;;;24.60;64.15
55301;BME280;58302;51.446;-2.000;2022-08-03T10:07:28;100466.47;;;25.03;62.41
55301;BME280;58302;51.446;-2.000;2022-08-03T10:09:59;100453.28;;;25.15;61.47
55301;BME280;58302;51.446;-2.000;2022-08-03T10:12:25;100451.16;;;24.93;62.48
55301;BME280;58302;51.446;-2.000;2022-08-03T10:14:52;100459.78;;;24.72;63.28
55301;BME280;58302;51.446;-2.000;2022-08-03T10:17:19;100458.38;;;24.31;65.05
55301;BME280;58302;51.446;-2.000;2022-08-03T10:19:46;100464.19;;;23.82;66.66
55301;BME280;58302;51.446;-2.000;2022-08-03T10:22:15;100465.09;;;23.58;67.62
55301;BME280;58302;51.446;-2.000;2022-08-03T10:27:18;100472.38;;;23.62;68.14
55301;BME280;58302;51.446;-2.000;2022-08-03T10:29:50;100471.72;;;23.81;67.98
55301;BME280;58302;51.446;-2.000;2022-08-03T10:32:33;100466.97;;;23.82;67.45
55301;BME280;58302;51.446;-2.000;2022-08-03T10:35:10;100466.59;;;23.55;68.50
55301;BME280;58302;51.446;-2.000;2022-08-03T10:37:43;100471.69;;;23.13;71.01
55301;BME280;58302;51.446;-2.000;2022-08-03T10:40:14;100474.69;;;22.83;74.05
55301;BME280;58302;51.446;-2.000;2022-08-03T10:42:45;100480.91;;;22.56;76.21
55301;BME280;58302;51.446;-2.000;2022-08-03T10:45:20;100485.03;;;22.25;79.43
55301;BME280;58302;51.446;-2.000;2022-08-03T10:47:47;100505.69;;;21.95;82.41
55301;BME280;58302;51.446;-2.000;2022-08-03T10:50:13;100500.69;;;21.25;85.44
55301;BME280;58302;51.446;-2.000;2022-08-03T10:53:00;100508.94;;;20.75;89.01
55301;BME280;58302;51.446;-2.000;2022-08-03T10:55:33;100511.31;;;20.56;91.25
55301;BME280;58302;51.446;-2.000;2022-08-03T11:01:04;100510.44;;;20.17;92.62
55301;BME280;58302;51.446;-2.000;2022-08-03T11:03:31;100519.00;;;20.24;93.56
55301;BME280;58302;51.446;-2.000;2022-08-03T11:06:29;100513.72;;;20.57;92.60
55301;BME280;58302;51.446;-2.000;2022-08-03T11:11:38;100510.59;;;20.67;87.06
55301;BME280;58302;51.446;-2.000;2022-08-03T11:14:07;100505.84;;;20.76;86.80
55301;BME280;58302;51.446;-2.000;2022-08-03T11:16:35;100512.28;;;20.89;85.19
55301;BME280;58302;51.446;-2.000;2022-08-03T11:19:04;100509.78;;;21.26;84.83
55301;BME280;58302;51.446;-2.000;2022-08-03T11:40:47;100521.25;;;22.20;74.22
55301;BME280;58302;51.446;-2.000;2022-08-03T11:46:04;100512.78;;;22.74;73.14
55301;BME280;58302;51.446;-2.000;2022-08-03T11:48:39;100521.09;;;23.23;70.56
55301;BME280;58302;51.446;-2.000;2022-08-03T11:53:44;100519.69;;;23.29;68.42
55301;BME280;58302;51.446;-2.000;2022-08-03T11:56:12;100524.59;;;23.60;66.60
55301;BME280;58302;51.446;-2.000;2022-08-03T11:58:46;100527.03;;;23.74;66.42
55301;BME280;58302;51.446;-2.000;2022-08-03T12:01:13;100534.69;;;23.65;65.46
55301;BME280;58302;51.446;-2.000;2022-08-03T12:03:41;100527.06;;;23.50;65.36
55301;BME280;58302;51.446;-2.000;2022-08-03T12:06:09;100522.78;;;23.52;65.69
55301;BME280;58302;51.446;-2.000;2022-08-03T12:08:36;100522.47;;;23.42;65.97
55301;BME280;58302;51.446;-2.000;2022-08-03T12:11:04;100528.59;;;23.47;66.63
55301;BME280;58302;51.446;-2.000;2022-08-03T12:13:40;100528.94;;;22.84;68.25
55301;BME280;58302;51.446;-2.000;2022-08-03T12:16:06;100532.75;;;22.68;69.43
55301;BME280;58302;51.446;-2.000;2022-08-03T12:18:32;100546.09;;;22.41;70.26
55301;BME280;58302;51.446;-2.000;2022-08-03T12:21:09;100539.59;;;22.25;71.27
55301;BME280;58302;51.446;-2.000;2022-08-03T12:23:36;100534.31;;;22.32;71.03
55301;BME280;58302;51.446;-2.000;2022-08-03T12:26:08;100540.75;;;22.36;70.88
55301;BME280;58302;51.446;-2.000;2022-08-03T12:28:35;100546.28;;;22.24;71.23
55301;BME280;58302;51.446;-2.000;2022-08-03T12:31:04;100547.94;;;22.04;72.17
55301;BME280;58302;51.446;-2.000;2022-08-03T12:33:32;100549.06;;;22.03;72.31
55301;BME280;58302;51.446;-2.000;2022-08-03T12:36:18;100550.06;;;22.19;70.71
55301;BME280;58302;51.446;-2.000;2022-08-03T12:38:53;100551.75;;;22.45;70.82
55301;BME280;58302;51.446;-2.000;2022-08-03T12:41:26;100547.72;;;22.42;69.04
55301;BME280;58302;51.446;-2.000;2022-08-03T12:43:53;100547.78;;;22.21;69.86
55301;BME280;58302;51.446;-2.000;2022-08-03T12:46:19;100552.69;;;22.49;69.06
55301;BME280;58302;51.446;-2.000;2022-08-03T12:49:03;100552.69;;;22.49;69.60
55301;BME280;58302;51.446;-2.000;2022-08-03T12:54:22;100559.47;;;22.06;72.30
55301;BME280;58302;51.446;-2.000;2022-08-03T12:57:09;100560.03;;;21.78;73.82
55301;BME280;58302;51.446;-2.000;2022-08-03T12:59:40;100567.66;;;21.81;73.63
55301;BME280;58302;51.446;-2.000;2022-08-03T13:04:43;100576.47;;;21.33;73.75
55301;BME280;58302;51.446;-2.000;2022-08-03T13:07:10;100568.25;;;21.16;75.16
55301;BME280;58302;51.446;-2.000;2022-08-03T13:12:21;100556.19;;;22.25;71.94
55301;BME280;58302;51.446;-2.000;2022-08-03T13:14:55;100543.19;;;23.07;68.30
55301;BME280;58302;51.446;-2.000;2022-08-03T13:17:22;100544.03;;;23.73;64.86
55301;BME280;58302;51.446;-2.000;2022-08-03T13:19:49;100545.72;;;24.33;62.48
55301;BME280;58302;51.446;-2.000;2022-08-03T13:22:20;100531.63;;;24.54;60.50
55301;BME280;58302;51.446;-2.000;2022-08-03T13:24:49;100536.75;;;24.68;59.13
55301;BME280;58302;51.446;-2.000;2022-08-03T13:27:16;100541.97;;;25.36;57.84
55301;BME280;58302;51.446;-2.000;2022-08-03T13:29:43;100540.44;;;25.74;55.88
55301;BME280;58302;51.446;-2.000;2022-08-03T13:32:09;100543.53;;;26.31;54.24
55301;BME280;58302;51.446;-2.000;2022-08-03T13:34:36;100540.75;;;26.31;54.16
55301;BME280;58302;51.446;-2.000;2022-08-03T13:37:02;100534.28;;;25.84;55.06
55301;BME280;58302;51.446;-2.000;2022-08-03T13:39:29;100534.44;;;25.91;55.12
55301;BME280;58302;51.446;-2.000;2022-08-03T13:41:55;100538.34;;;26.29;53.53
55301;BME280;58302;51.446;-2.000;2022-08-03T13:44:22;100537.03;;;26.23;52.94
55301;BME280;58302;51.446;-2.000;2022-08-03T13:46:48;100525.94;;;25.84;53.89
55301;BME280;58302;51.446;-2.000;2022-08-03T13:49:14;100526.06;;;25.37;55.55
55301;BME280;58302;51.446;-2.000;2022-08-03T13:51:40;100530.03;;;25.36;55.64